sensor_id;sensor_type;location;lat;lon;timestamp;P1;durP1;ratioP1;P2;durP2;ratioP2
28862;SDS011;15994;51.796;13.006;2024-02-21T00:02:20;14.05;;;3.70;;
28862;SDS011;15994;51.796;13.006;2024-02-21T00:04:47;11.77;;;3.38;;
28862;SDS011;15994;51.796;13.006;2024-02-21T00:07:14;16.77;;;4.15;;
28862;SDS011;15994;51.796;13.006;2024-02-21T00:09:41;15.23;;;3.38;;
28862;SDS011;15994;51.796;13.006;2024-02-21T00:12:08;15.27;;;3.58;;
28862;SDS011;15994;51.796;13.006;2024-02-21T00:14:35;12.93;;;3.53;;
28862;SDS011;15994;51.796;13.006;2024-02-21T00:17:02;11.90;;;3.90;;
28862;SDS011;15994;51.796;13.006;2024-02-21T00:19:29;15.88;;;3.75;;
28862;SDS011;15994;51.796;13.006;2024-02-21T00:21:56;17.50;;;3.90;;
28862;SDS011;15994;51.796;13.006;2024-02-21T00:24:23;16.13;;;4.03;;
28862;SDS011;15994;51.796;13.006;2024-02-21T00:26:50;15.32;;;4.15;;
28862;SDS011;15994;51.796;13.006;2024-02-21T00:29:17;17.67;;;3.40;;
28862;SDS011;15994;51.796;13.006;2024-02-21T00:31:44;16.40;;;3.38;;
28862;SDS011;15994;51.796;13.006;2024-02-21T00:34:09;15.43;;;4.13;;
28862;SDS011;15994;51.796;13.006;2024-02-21T00:36:37;15.43;;;3.38;;
28862;SDS011;15994;51.796;13.006;2024-02-21T00:39:04;15.70;;;3.85;;
28862;SDS011;15994;51.796;13.006;2024-02-21T00:41:31;18.63;;;4.10;;
28862;SDS011;15994;51.796;13.006;2024-02-21T00:43:58;13.88;;;3.80;;
28862;SDS011;15994;51.796;13.006;2024-02-21T00:46:25;14.93;;;4.20;;
28862;SDS011;15994;51.796;13.006;2024-02-21T00:48:52;17.58;;;3.63;;
28862;SDS011;15994;51.796;13.006;2024-02-21T00:51:19;13.80;;;3.47;;
28862;SDS011;15994;51.796;13.006;2024-02-21T00:53:46;15.27;;;4.05;;
28862;SDS011;15994;51.796;13.006;2024-02-21T00:56:13;14.18;;;4.05;;
28862;SDS011;15994;51.796;13.006;2024-02-21T00:58:40;15.20;;;3.50;;
28862;SDS011;15994;51.796;13.006;2024-02-21T01:01:07;17.00;;;3.80;;
28862;SDS011;15994;51.796;13.006;2024-02-21T01:03:33;17.08;;;4.22;;
28862;SDS011;15994;51.796;13.006;2024-02-21T01:06:00;16.27;;;3.90;;
28862;SDS011;15994;51.796;13.006;2024-02-21T01:08:27;16.73;;;4.13;;
28862;SDS011;15994;51.796;13.006;2024-02-21T01:10:54;16.35;;;3.83;;
28862;SDS011;15994;51.796;13.006;2024-02-21T01:13:21;19.58;;;3.83;;
28862;SDS011;15994;51.796;13.006;2024-02-21T01:15:48;21.08;;;4.10;;
28862;SDS011;15994;51.796;13.006;2024-02-21T01:18:15;14.80;;;3.55;;
28862;SDS011;15994;51.796;13.006;2024-02-21T01:20:42;18.42;;;3.65;;
28862;SDS011;15994;51.796;13.006;2024-02-21T01:23:09;16.75;;;3.90;;
28862;SDS011;15994;51.796;13.006;2024-02-21T01:25:36;18.90;;;4.07;;
28862;SDS011;15994;51.796;13.006;2024-02-21T01:28:03;18.13;;;3.83;;
28862;SDS011;15994;51.796;13.006;2024-02-21T01:30:30;14.23;;;3.63;;
28862;SDS011;15994;51.796;13.006;2024-02-21T01:32:57;16.75;;;4.05;;
28862;SDS011;15994;51.796;13.006;2024-02-21T01:35:24;13.95;;;3.55;;
28862;SDS011;15994;51.796;13.006;2024-02-21T01:37:51;14.55;;;4.30;;
28862;SDS011;15994;51.796;13.006;2024-02-21T01:40:18;15.10;;;3.47;;
28862;SDS011;15994;51.796;13.006;2024-02-21T01:42:45;14.45;;;3.88;;
28862;SDS011;15994;51.796;13.006;2024-02-21T01:45:12;13.43;;;4.20;;
28862;SDS011;15994;51.796;13.006;2024-02-21T01:47:39;15.95;;;3.78;;
28862;SDS011;15994;51.796;13.006;2024-02-21T01:50:06;21.05;;;4.10;;
28862;SDS011;15994;51.796;13.006;2024-02-21T01:52:33;19.17;;;4.05;;
28862;SDS011;15994;51.796;13.006;2024-02-21T01:55:00;13.25;;;3.60;;
28862;SDS011;15994;51.796;13.006;2024-02-21T01:57:27;12.27;;;3.72;;
28862;SDS011;15994;51.796;13.006;2024-02-21T01:59:54;18.83;;;4.40;;
28862;SDS011;15994;51.796;13.006;2024-02-21T02:02:21;14.57;;;5.07;;
28862;SDS011;15994;51.796;13.006;2024-02-21T02:04:49;15.55;;;4.57;;
28862;SDS011;15994;51.796;13.006;2024-02-21T02:07:16;16.35;;;4.47;;
28862;SDS011;15994;51.796;13.006;2024-02-21T02:09:43;13.65;;;4.13;;
28862;SDS011;15994;51.796;13.006;2024-02-21T02:12:10;17.38;;;4.13;;
28862;SDS011;15994;51.796;13.006;2024-02-21T02:14:37;15.90;;;4.40;;
28862;SDS011;15994;51.796;13.006;2024-02-21T02:17:04;16.50;;;4.25;;
28862;SDS011;15994;51.796;13.006;2024-02-21T02:19:31;18.33;;;4.82;;
28862;SDS011;15994;51.796;13.006;2024-02-21T02:21:59;17.40;;;4.35;;
28862;SDS011;15994;51.796;13.006;2024-02-21T02:24:27;12.35;;;3.75;;
28862;SDS011;15994;51.796;13.006;2024-02-21T02:26:54;16.13;;;4.28;;
28862;SDS011;15994;51.796;13.006;2024-02-21T02:29:21;20.13;;;4.60;;
28862;SDS011;15994;51.796;13.006;2024-02-21T02:31:49;16.48;;;4.68;;
28862;SDS011;15994;51.796;13.006;2024-02-21T02:34:16;15.60;;;4.07;;
28862;SDS011;15994;51.796;13.006;2024-02-21T02:36:43;18.85;;;4.55;;
28862;SDS011;15994;51.796;13.006;2024-02-21T02:39:09;16.73;;;4.30;;
28862;SDS011;15994;51.796;13.006;2024-02-21T02:41:36;14.07;;;4.22;;
28862;SDS011;15994;51.796;13.006;2024-02-21T02:44:03;19.95;;;4.35;;
28862;SDS011;15994;51.796;13.006;2024-02-21T02:46:30;15.50;;;4.20;;
28862;SDS011;15994;51.796;13.006;2024-02-21T02:48:57;16.75;;;4.65;;
28862;SDS011;15994;51.796;13.006;2024-02-21T02:51:24;14.80;;;4.43;;
28862;SDS011;15994;51.796;13.006;2024-02-21T02:53:51;17.20;;;4.47;;
28862;SDS011;15994;51.796;13.006;2024-02-21T02:56:18;16.08;;;4.80;;
28862;SDS011;15994;51.796;13.006;2024-02-21T02:58:45;19.25;;;4.97;;
28862;SDS011;15994;51.796;13.006;2024-02-21T03:01:12;13.65;;;4.32;;
28862;SDS011;15994;51.796;13.006;2024-02-21T03:03:39;13.68;;;4.53;;
28862;SDS011;15994;51.796;13.006;2024-02-21T03:06:06;14.40;;;4.50;;
28862;SDS011;15994;51.796;13.006;2024-02-21T03:08:33;16.83;;;4.55;;
28862;SDS011;15994;51.796;13.006;2024-02-21T03:11:00;14.43;;;4.47;;
28862;SDS011;15994;51.796;13.006;2024-02-21T03:13:27;18.95;;;4.55;;
28862;SDS011;15994;51.796;13.006;2024-02-21T03:15:54;14.35;;;4.30;;
28862;SDS011;15994;51.796;13.006;2024-02-21T03:18:21;12.95;;;4.63;;
28862;SDS011;15994;51.796;13.006;2024-02-21T03:20:48;14.57;;;4.20;;
28862;SDS011;15994;51.796;13.006;2024-02-21T03:23:15;19.10;;;4.50;;
28862;SDS011;15994;51.796;13.006;2024-02-21T03:25:42;15.55;;;4.40;;
28862;SDS011;15994;51.796;13.006;2024-02-21T03:28:09;15.38;;;4.18;;
28862;SDS011;15994;51.796;13.006;2024-02-21T03:30:36;19.02;;;4.53;;
28862;SDS011;15994;51.796;13.006;2024-02-21T03:33:03;14.50;;;3.70;;
28862;SDS011;15994;51.796;13.006;2024-02-21T03:35:30;17.05;;;3.95;;
28862;SDS011;15994;51.796;13.006;2024-02-21T03:37:57;13.57;;;3.83;;
28862;SDS011;15994;51.796;13.006;2024-02-21T03:40:23;14.05;;;4.22;;
28862;SDS011;15994;51.796;13.006;2024-02-21T03:42:50;18.40;;;4.75;;
28862;SDS011;15994;51.796;13.006;2024-02-21T03:45:17;14.95;;;3.95;;
28862;SDS011;15994;51.796;13.006;2024-02-21T03:47:44;14.77;;;4.15;;
28862;SDS011;15994;51.796;13.006;2024-02-21T03:50:11;11.40;;;4.05;;
28862;SDS011;15994;51.796;13.006;2024-02-21T03:52:38;18.30;;;4.63;;
28862;SDS011;15994;51.796;13.006;2024-02-21T03:55:05;16.38;;;4.30;;
28862;SDS011;15994;51.796;13.006;2024-02-21T03:57:33;16.70;;;4.13;;
28862;SDS011;15994;51.796;13.006;2024-02-21T04:00:00;13.60;;;4.25;;
28862;SDS011;15994;51.796;13.006;2024-02-21T04:02:28;13.13;;;3.85;;
28862;SDS011;15994;51.796;13.006;2024-02-21T04:04:55;14.90;;;4.28;;
28862;SDS011;15994;51.796;13.006;2024-02-21T04:07:22;17.30;;;4.53;;
28862;SDS011;15994;51.796;13.006;2024-02-21T04:09:52;10.57;;;4.50;;
28862;SDS011;15994;51.796;13.006;2024-02-21T04:12:20;17.48;;;4.60;;
28862;SDS011;15994;51.796;13.006;2024-02-21T04:14:47;16.55;;;3.88;;
28862;SDS011;15994;51.796;13.006;2024-02-21T04:17:13;14.75;;;4.15;;
28862;SDS011;15994;51.796;13.006;2024-02-21T04:19:40;16.42;;;4.30;;
28862;SDS011;15994;51.796;13.006;2024-02-21T04:22:07;17.20;;;5.13;;
28862;SDS011;15994;51.796;13.006;2024-02-21T04:24:34;15.10;;;4.88;;
28862;SDS011;15994;51.796;13.006;2024-02-21T04:27:01;14.90;;;4.45;;
28862;SDS011;15994;51.796;13.006;2024-02-21T04:29:28;14.57;;;4.50;;
28862;SDS011;15994;51.796;13.006;2024-02-21T04:31:55;12.95;;;3.90;;
28862;SDS011;15994;51.796;13.006;2024-02-21T04:34:22;15.07;;;4.60;;
28862;SDS011;15994;51.796;13.006;2024-02-21T04:36:49;15.50;;;4.75;;
28862;SDS011;15994;51.796;13.006;2024-02-21T04:39:16;17.15;;;4.22;;
28862;SDS011;15994;51.796;13.006;2024-02-21T04:41:43;14.88;;;4.70;;
28862;SDS011;15994;51.796;13.006;2024-02-21T04:44:10;15.07;;;4.82;;
28862;SDS011;15994;51.796;13.006;2024-02-21T04:46:37;14.93;;;4.68;;
28862;SDS011;15994;51.796;13.006;2024-02-21T04:49:04;16.15;;;4.60;;
28862;SDS011;15994;51.796;13.006;2024-02-21T04:51:31;16.17;;;4.88;;
28862;SDS011;15994;51.796;13.006;2024-02-21T04:53:58;19.00;;;4.63;;
28862;SDS011;15994;51.796;13.006;2024-02-21T04:56:24;19.50;;;5.07;;
28862;SDS011;15994;51.796;13.006;2024-02-21T04:58:51;14.77;;;4.82;;
28862;SDS011;15994;51.796;13.006;2024-02-21T05:01:18;12.13;;;4.10;;
28862;SDS011;15994;51.796;13.006;2024-02-21T05:03:45;12.88;;;4.32;;
28862;SDS011;15994;51.796;13.006;2024-02-21T05:06:12;16.73;;;4.70;;
28862;SDS011;15994;51.796;13.006;2024-02-21T05:08:40;17.42;;;5.40;;
28862;SDS011;15994;51.796;13.006;2024-02-21T05:11:06;16.23;;;4.50;;
28862;SDS011;15994;51.796;13.006;2024-02-21T05:13:33;14.82;;;4.85;;
28862;SDS011;15994;51.796;13.006;2024-02-21T05:16:00;13.32;;;4.30;;
28862;SDS011;15994;51.796;13.006;2024-02-21T05:18:27;15.68;;;4.65;;
28862;SDS011;15994;51.796;13.006;2024-02-21T05:20:54;12.38;;;4.25;;
28862;SDS011;15994;51.796;13.006;2024-02-21T05:23:21;17.20;;;4.90;;
28862;SDS011;15994;51.796;13.006;2024-02-21T05:25:48;16.13;;;4.80;;
28862;SDS011;15994;51.796;13.006;2024-02-21T05:28:15;16.13;;;5.00;;
28862;SDS011;15994;51.796;13.006;2024-02-21T05:30:42;16.02;;;4.43;;
28862;SDS011;15994;51.796;13.006;2024-02-21T05:33:09;16.33;;;4.20;;
28862;SDS011;15994;51.796;13.006;2024-02-21T05:35:36;15.32;;;5.15;;
28862;SDS011;15994;51.796;13.006;2024-02-21T05:38:03;11.65;;;4.53;;
28862;SDS011;15994;51.796;13.006;2024-02-21T05:40:36;14.75;;;4.82;;
28862;SDS011;15994;51.796;13.006;2024-02-21T05:43:03;13.73;;;4.82;;
28862;SDS011;15994;51.796;13.006;2024-02-21T05:45:30;13.60;;;5.28;;
28862;SDS011;15994;51.796;13.006;2024-02-21T05:47:57;16.70;;;4.82;;
28862;SDS011;15994;51.796;13.006;2024-02-21T05:50:24;18.85;;;5.10;;
28862;SDS011;15994;51.796;13.006;2024-02-21T05:52:52;15.25;;;4.53;;
28862;SDS011;15994;51.796;13.006;2024-02-21T05:55:19;18.73;;;4.72;;
28862;SDS011;15994;51.796;13.006;2024-02-21T05:57:46;18.80;;;4.97;;
28862;SDS011;15994;51.796;13.006;2024-02-21T06:00:13;13.90;;;4.85;;
28862;SDS011;15994;51.796;13.006;2024-02-21T06:02:40;12.57;;;4.45;;
28862;SDS011;15994;51.796;13.006;2024-02-21T06:05:08;16.20;;;4.63;;
28862;SDS011;15994;51.796;13.006;2024-02-21T06:07:35;14.82;;;4.63;;
28862;SDS011;15994;51.796;13.006;2024-02-21T06:10:02;15.70;;;4.75;;
28862;SDS011;15994;51.796;13.006;2024-02-21T06:12:29;18.23;;;4.90;;
28862;SDS011;15994;51.796;13.006;2024-02-21T06:14:56;12.68;;;4.28;;
28862;SDS011;15994;51.796;13.006;2024-02-21T06:17:23;19.30;;;4.72;;
28862;SDS011;15994;51.796;13.006;2024-02-21T06:19:50;14.55;;;4.65;;
28862;SDS011;15994;51.796;13.006;2024-02-21T06:22:17;14.68;;;5.25;;
28862;SDS011;15994;51.796;13.006;2024-02-21T06:24:43;15.32;;;5.28;;
28862;SDS011;15994;51.796;13.006;2024-02-21T06:27:11;19.45;;;5.30;;
28862;SDS011;15994;51.796;13.006;2024-02-21T06:29:39;19.95;;;5.22;;
28862;SDS011;15994;51.796;13.006;2024-02-21T06:32:06;20.52;;;4.93;;
28862;SDS011;15994;51.796;13.006;2024-02-21T06:34:33;17.17;;;4.40;;
28862;SDS011;15994;51.796;13.006;2024-02-21T06:37:00;20.90;;;5.53;;
28862;SDS011;15994;51.796;13.006;2024-02-21T06:39:27;15.60;;;5.80;;
28862;SDS011;15994;51.796;13.006;2024-02-21T06:41:54;20.42;;;5.55;;
28862;SDS011;15994;51.796;13.006;2024-02-21T06:44:21;18.65;;;4.97;;
28862;SDS011;15994;51.796;13.006;2024-02-21T06:46:48;17.00;;;5.20;;
28862;SDS011;15994;51.796;13.006;2024-02-21T06:49:15;19.10;;;5.50;;
28862;SDS011;15994;51.796;13.006;2024-02-21T06:51:42;14.30;;;5.22;;
28862;SDS011;15994;51.796;13.006;2024-02-21T06:54:09;17.40;;;5.25;;
28862;SDS011;15994;51.796;13.006;2024-02-21T06:56:37;15.73;;;5.40;;
28862;SDS011;15994;51.796;13.006;2024-02-21T06:59:04;18.77;;;5.80;;
28862;SDS011;15994;51.796;13.006;2024-02-21T07:01:31;18.67;;;6.18;;
28862;SDS011;15994;51.796;13.006;2024-02-21T07:03:58;17.80;;;6.63;;
28862;SDS011;15994;51.796;13.006;2024-02-21T07:06:25;16.65;;;5.78;;
28862;SDS011;15994;51.796;13.006;2024-02-21T07:08:51;17.15;;;6.15;;
28862;SDS011;15994;51.796;13.006;2024-02-21T07:11:18;18.17;;;6.25;;
28862;SDS011;15994;51.796;13.006;2024-02-21T07:13:45;15.95;;;5.30;;
28862;SDS011;15994;51.796;13.006;2024-02-21T07:16:12;18.70;;;6.20;;
28862;SDS011;15994;51.796;13.006;2024-02-21T07:18:39;20.55;;;6.57;;
28862;SDS011;15994;51.796;13.006;2024-02-21T07:21:06;19.38;;;6.15;;
28862;SDS011;15994;51.796;13.006;2024-02-21T07:23:33;17.20;;;6.60;;
28862;SDS011;15994;51.796;13.006;2024-02-21T07:26:00;21.45;;;6.68;;
28862;SDS011;15994;51.796;13.006;2024-02-21T07:28:27;18.08;;;6.43;;
28862;SDS011;15994;51.796;13.006;2024-02-21T07:30:54;18.27;;;6.45;;
28862;SDS011;15994;51.796;13.006;2024-02-21T07:33:21;26.55;;;7.60;;
28862;SDS011;15994;51.796;13.006;2024-02-21T07:35:48;20.60;;;6.78;;
28862;SDS011;15994;51.796;13.006;2024-02-21T07:38:15;17.10;;;6.35;;
28862;SDS011;15994;51.796;13.006;2024-02-21T07:40:46;16.23;;;6.32;;
28862;SDS011;15994;51.796;13.006;2024-02-21T07:43:13;18.42;;;6.88;;
28862;SDS011;15994;51.796;13.006;2024-02-21T07:45:40;23.90;;;7.15;;
28862;SDS011;15994;51.796;13.006;2024-02-21T07:48:07;17.65;;;6.18;;
28862;SDS011;15994;51.796;13.006;2024-02-21T07:50:34;19.58;;;6.68;;
28862;SDS011;15994;51.796;13.006;2024-02-21T07:53:01;18.98;;;6.57;;
28862;SDS011;15994;51.796;13.006;2024-02-21T07:55:27;16.95;;;6.20;;
28862;SDS011;15994;51.796;13.006;2024-02-21T07:57:54;18.20;;;6.72;;
28862;SDS011;15994;51.796;13.006;2024-02-21T08:00:21;18.02;;;6.43;;
28862;SDS011;15994;51.796;13.006;2024-02-21T08:02:48;17.73;;;6.20;;
28862;SDS011;15994;51.796;13.006;2024-02-21T08:05:15;14.55;;;5.75;;
28862;SDS011;15994;51.796;13.006;2024-02-21T08:07:42;14.18;;;5.95;;
28862;SDS011;15994;51.796;13.006;2024-02-21T08:10:09;18.02;;;6.03;;
28862;SDS011;15994;51.796;13.006;2024-02-21T08:12:36;18.15;;;6.22;;
28862;SDS011;15994;51.796;13.006;2024-02-21T08:15:03;19.73;;;6.38;;
28862;SDS011;15994;51.796;13.006;2024-02-21T08:17:33;21.67;;;6.78;;
28862;SDS011;15994;51.796;13.006;2024-02-21T08:19:59;19.52;;;6.82;;
28862;SDS011;15994;51.796;13.006;2024-02-21T08:22:27;18.05;;;6.65;;
28862;SDS011;15994;51.796;13.006;2024-02-21T08:24:54;19.48;;;6.50;;
28862;SDS011;15994;51.796;13.006;2024-02-21T08:27:21;18.02;;;6.53;;
28862;SDS011;15994;51.796;13.006;2024-02-21T08:29:47;17.55;;;6.18;;
28862;SDS011;15994;51.796;13.006;2024-02-21T08:32:14;17.48;;;6.47;;
28862;SDS011;15994;51.796;13.006;2024-02-21T08:34:41;19.80;;;7.03;;
28862;SDS011;15994;51.796;13.006;2024-02-21T08:37:08;17.38;;;6.20;;
28862;SDS011;15994;51.796;13.006;2024-02-21T08:39:35;16.55;;;6.35;;
28862;SDS011;15994;51.796;13.006;2024-02-21T08:42:02;19.15;;;6.75;;
28862;SDS011;15994;51.796;13.006;2024-02-21T08:44:29;17.50;;;6.20;;
28862;SDS011;15994;51.796;13.006;2024-02-21T08:46:56;13.75;;;6.05;;
28862;SDS011;15994;51.796;13.006;2024-02-21T08:49:23;15.23;;;5.88;;
28862;SDS011;15994;51.796;13.006;2024-02-21T08:51:53;16.25;;;6.45;;
28862;SDS011;15994;51.796;13.006;2024-02-21T08:54:20;18.58;;;6.43;;
28862;SDS011;15994;51.796;13.006;2024-02-21T08:56:47;16.17;;;6.60;;
28862;SDS011;15994;51.796;13.006;2024-02-21T08:59:14;17.15;;;6.43;;
28862;SDS011;15994;51.796;13.006;2024-02-21T09:01:41;17.30;;;6.55;;
28862;SDS011;15994;51.796;13.006;2024-02-21T09:04:08;14.63;;;6.13;;
28862;SDS011;15994;51.796;13.006;2024-02-21T09:06:35;13.18;;;5.55;;
28862;SDS011;15994;51.796;13.006;2024-02-21T09:09:07;15.32;;;5.90;;
28862;SDS011;15994;51.796;13.006;2024-02-21T09:11:34;17.80;;;5.75;;
28862;SDS011;15994;51.796;13.006;2024-02-21T09:14:02;16.42;;;5.60;;
28862;SDS011;15994;51.796;13.006;2024-02-21T09:16:32;17.58;;;5.93;;
28862;SDS011;15994;51.796;13.006;2024-02-21T09:18:59;17.63;;;6.28;;
28862;SDS011;15994;51.796;13.006;2024-02-21T09:21:26;12.80;;;5.90;;
28862;SDS011;15994;51.796;13.006;2024-02-21T09:23:54;15.20;;;6.35;;
28862;SDS011;15994;51.796;13.006;2024-02-21T09:26:20;15.35;;;5.93;;
28862;SDS011;15994;51.796;13.006;2024-02-21T09:28:47;16.90;;;6.35;;
28862;SDS011;15994;51.796;13.006;2024-02-21T09:31:14;19.50;;;8.00;;
28862;SDS011;15994;51.796;13.006;2024-02-21T09:33:41;14.88;;;7.00;;
28862;SDS011;15994;51.796;13.006;2024-02-21T09:36:08;13.25;;;5.35;;
28862;SDS011;15994;51.796;13.006;2024-02-21T09:38:35;13.68;;;5.40;;
28862;SDS011;15994;51.796;13.006;2024-02-21T09:41:16;12.77;;;5.32;;
28862;SDS011;15994;51.796;13.006;2024-02-21T09:43:43;14.35;;;5.20;;
28862;SDS011;15994;51.796;13.006;2024-02-21T09:46:17;14.65;;;5.80;;
28862;SDS011;15994;51.796;13.006;2024-02-21T09:49:06;17.05;;;5.95;;
28862;SDS011;15994;51.796;13.006;2024-02-21T09:51:38;17.73;;;5.72;;
28862;SDS011;15994;51.796;13.006;2024-02-21T09:54:06;17.63;;;5.68;;
28862;SDS011;15994;51.796;13.006;2024-02-21T09:56:34;17.40;;;5.22;;
28862;SDS011;15994;51.796;13.006;2024-02-21T09:59:01;14.65;;;5.60;;
28862;SDS011;15994;51.796;13.006;2024-02-21T10:01:29;16.35;;;4.97;;
28862;SDS011;15994;51.796;13.006;2024-02-21T10:03:56;14.40;;;5.38;;
28862;SDS011;15994;51.796;13.006;2024-02-21T10:06:23;10.18;;;5.32;;
28862;SDS011;15994;51.796;13.006;2024-02-21T10:08:53;14.95;;;5.78;;
28862;SDS011;15994;51.796;13.006;2024-02-21T10:11:24;13.75;;;5.43;;
28862;SDS011;15994;51.796;13.006;2024-02-21T10:13:51;15.13;;;5.90;;
28862;SDS011;15994;51.796;13.006;2024-02-21T10:16:18;11.48;;;4.97;;
28862;SDS011;15994;51.796;13.006;2024-02-21T10:18:45;14.43;;;5.40;;
28862;SDS011;15994;51.796;13.006;2024-02-21T10:21:12;12.95;;;5.63;;
28862;SDS011;15994;51.796;13.006;2024-02-21T10:23:42;15.65;;;5.57;;
28862;SDS011;15994;51.796;13.006;2024-02-21T10:26:09;12.07;;;5.50;;
28862;SDS011;15994;51.796;13.006;2024-02-21T10:28:37;13.63;;;5.70;;
28862;SDS011;15994;51.796;13.006;2024-02-21T10:31:07;12.93;;;5.55;;
28862;SDS011;15994;51.796;13.006;2024-02-21T10:33:34;15.68;;;5.28;;
28862;SDS011;15994;51.796;13.006;2024-02-21T10:36:07;13.75;;;5.47;;
28862;SDS011;15994;51.796;13.006;2024-02-21T10:38:38;13.35;;;5.35;;
28862;SDS011;15994;51.796;13.006;2024-02-21T10:41:05;18.60;;;5.50;;
28862;SDS011;15994;51.796;13.006;2024-02-21T10:43:35;17.15;;;5.63;;
28862;SDS011;15994;51.796;13.006;2024-02-21T10:46:05;12.15;;;4.90;;
28862;SDS011;15994;51.796;13.006;2024-02-21T10:48:36;14.60;;;5.57;;
28862;SDS011;15994;51.796;13.006;2024-02-21T10:51:17;14.32;;;5.05;;
28862;SDS011;15994;51.796;13.006;2024-02-21T10:53:57;14.00;;;5.13;;
28862;SDS011;15994;51.796;13.006;2024-02-21T10:56:31;13.00;;;4.68;;
28862;SDS011;15994;51.796;13.006;2024-02-21T10:59:00;13.90;;;4.90;;
28862;SDS011;15994;51.796;13.006;2024-02-21T11:01:28;13.85;;;4.90;;
28862;SDS011;15994;51.796;13.006;2024-02-21T11:03:57;14.50;;;5.13;;
28862;SDS011;15994;51.796;13.006;2024-02-21T11:06:25;14.40;;;4.78;;
28862;SDS011;15994;51.796;13.006;2024-02-21T11:09:06;15.95;;;5.07;;
28862;SDS011;15994;51.796;13.006;2024-02-21T11:11:43;13.35;;;4.88;;
28862;SDS011;15994;51.796;13.006;2024-02-21T11:14:11;10.95;;;4.72;;
28862;SDS011;15994;51.796;13.006;2024-02-21T11:16:41;16.92;;;4.57;;
28862;SDS011;15994;51.796;13.006;2024-02-21T11:19:27;13.82;;;4.70;;
28862;SDS011;15994;51.796;13.006;2024-02-21T11:21:56;15.43;;;5.10;;
28862;SDS011;15994;51.796;13.006;2024-02-21T11:26:53;16.80;;;4.10;;
28862;SDS011;15994;51.796;13.006;2024-02-21T11:29:24;13.68;;;4.95;;
28862;SDS011;15994;51.796;13.006;2024-02-21T11:31:51;12.23;;;4.20;;
28862;SDS011;15994;51.796;13.006;2024-02-21T11:34:18;13.20;;;4.32;;
28862;SDS011;15994;51.796;13.006;2024-02-21T11:36:46;12.77;;;3.70;;
28862;SDS011;15994;51.796;13.006;2024-02-21T11:39:21;13.55;;;4.20;;
28862;SDS011;15994;51.796;13.006;2024-02-21T11:42:06;11.50;;;4.60;;
28862;SDS011;15994;51.796;13.006;2024-02-21T11:44:34;14.70;;;4.78;;
28862;SDS011;15994;51.796;13.006;2024-02-21T11:47:02;12.40;;;4.30;;
28862;SDS011;15994;51.796;13.006;2024-02-21T11:49:30;14.52;;;4.78;;
28862;SDS011;15994;51.796;13.006;2024-02-21T11:51:57;14.35;;;4.53;;
28862;SDS011;15994;51.796;13.006;2024-02-21T11:54:25;10.45;;;3.60;;
28862;SDS011;15994;51.796;13.006;2024-02-21T11:56:52;9.38;;;3.83;;
28862;SDS011;15994;51.796;13.006;2024-02-21T11:59:19;12.35;;;4.00;;
28862;SDS011;15994;51.796;13.006;2024-02-21T12:01:46;9.10;;;3.45;;
28862;SDS011;15994;51.796;13.006;2024-02-21T12:04:13;10.68;;;3.83;;
28862;SDS011;15994;51.796;13.006;2024-02-21T12:06:42;13.63;;;4.75;;
28862;SDS011;15994;51.796;13.006;2024-02-21T12:09:09;11.45;;;3.95;;
28862;SDS011;15994;51.796;13.006;2024-02-21T12:11:35;10.68;;;4.47;;
28862;SDS011;15994;51.796;13.006;2024-02-21T12:14:03;11.23;;;4.53;;
28862;SDS011;15994;51.796;13.006;2024-02-21T12:16:33;10.52;;;3.88;;
28862;SDS011;15994;51.796;13.006;2024-02-21T12:19:01;11.60;;;4.25;;
28862;SDS011;15994;51.796;13.006;2024-02-21T12:21:32;11.38;;;3.72;;
28862;SDS011;15994;51.796;13.006;2024-02-21T12:26:45;10.98;;;4.30;;
28862;SDS011;15994;51.796;13.006;2024-02-21T12:29:12;10.93;;;4.32;;
28862;SDS011;15994;51.796;13.006;2024-02-21T12:31:39;8.63;;;4.20;;
28862;SDS011;15994;51.796;13.006;2024-02-21T12:34:06;11.23;;;4.05;;
28862;SDS011;15994;51.796;13.006;2024-02-21T12:36:35;14.75;;;3.75;;
28862;SDS011;15994;51.796;13.006;2024-02-21T12:39:02;7.88;;;3.83;;
28862;SDS011;15994;51.796;13.006;2024-02-21T12:41:29;13.07;;;4.45;;
28862;SDS011;15994;51.796;13.006;2024-02-21T12:43:58;16.80;;;4.60;;
28862;SDS011;15994;51.796;13.006;2024-02-21T12:46:25;9.02;;;3.70;;
28862;SDS011;15994;51.796;13.006;2024-02-21T12:48:52;11.90;;;4.10;;
28862;SDS011;15994;51.796;13.006;2024-02-21T12:51:19;10.40;;;4.05;;
28862;SDS011;15994;51.796;13.006;2024-02-21T12:53:49;9.15;;;3.88;;
28862;SDS011;15994;51.796;13.006;2024-02-21T12:56:16;9.98;;;4.20;;
28862;SDS011;15994;51.796;13.006;2024-02-21T12:58:43;10.02;;;3.78;;
28862;SDS011;15994;51.796;13.006;2024-02-21T13:01:10;11.48;;;3.85;;
28862;SDS011;15994;51.796;13.006;2024-02-21T13:03:37;9.90;;;4.07;;
28862;SDS011;15994;51.796;13.006;2024-02-21T13:06:05;10.38;;;3.80;;
28862;SDS011;15994;51.796;13.006;2024-02-21T13:08:33;10.65;;;3.55;;
28862;SDS011;15994;51.796;13.006;2024-02-21T13:11:00;9.68;;;3.60;;
28862;SDS011;15994;51.796;13.006;2024-02-21T13:13:27;8.50;;;3.50;;
28862;SDS011;15994;51.796;13.006;2024-02-21T13:15:54;9.15;;;3.17;;
28862;SDS011;15994;51.796;13.006;2024-02-21T13:18:21;10.20;;;3.45;;
28862;SDS011;15994;51.796;13.006;2024-02-21T13:20:48;10.65;;;3.70;;
28862;SDS011;15994;51.796;13.006;2024-02-21T13:23:15;9.27;;;3.50;;
28862;SDS011;15994;51.796;13.006;2024-02-21T13:25:42;8.57;;;3.40;;
28862;SDS011;15994;51.796;13.006;2024-02-21T13:28:10;10.48;;;3.63;;
28862;SDS011;15994;51.796;13.006;2024-02-21T13:30:38;9.45;;;2.90;;
28862;SDS011;15994;51.796;13.006;2024-02-21T13:33:06;8.52;;;2.90;;
28862;SDS011;15994;51.796;13.006;2024-02-21T13:35:34;10.18;;;3.05;;
28862;SDS011;15994;51.796;13.006;2024-02-21T13:38:01;8.30;;;2.42;;
28862;SDS011;15994;51.796;13.006;2024-02-21T13:40:28;9.27;;;2.65;;
28862;SDS011;15994;51.796;13.006;2024-02-21T13:42:55;8.68;;;2.58;;
28862;SDS011;15994;51.796;13.006;2024-02-21T13:45:23;7.85;;;2.00;;
28862;SDS011;15994;51.796;13.006;2024-02-21T13:47:50;7.15;;;2.28;;
28862;SDS011;15994;51.796;13.006;2024-02-21T13:50:17;8.43;;;2.22;;
28862;SDS011;15994;51.796;13.006;2024-02-21T13:52:44;6.85;;;2.28;;
28862;SDS011;15994;51.796;13.006;2024-02-21T13:55:11;6.97;;;2.40;;
28862;SDS011;15994;51.796;13.006;2024-02-21T13:57:38;5.85;;;2.35;;
28862;SDS011;15994;51.796;13.006;2024-02-21T14:00:05;8.45;;;2.28;;
28862;SDS011;15994;51.796;13.006;2024-02-21T14:02:35;6.82;;;2.35;;
28862;SDS011;15994;51.796;13.006;2024-02-21T14:05:03;8.25;;;2.60;;
28862;SDS011;15994;51.796;13.006;2024-02-21T14:07:31;5.65;;;2.08;;
28862;SDS011;15994;51.796;13.006;2024-02-21T14:09:58;7.88;;;2.60;;
28862;SDS011;15994;51.796;13.006;2024-02-21T14:12:25;9.07;;;2.47;;
28862;SDS011;15994;51.796;13.006;2024-02-21T14:14:52;6.93;;;2.50;;
28862;SDS011;15994;51.796;13.006;2024-02-21T14:17:20;7.68;;;2.50;;
28862;SDS011;15994;51.796;13.006;2024-02-21T14:19:47;8.30;;;2.45;;
28862;SDS011;15994;51.796;13.006;2024-02-21T14:22:13;6.07;;;2.67;;
28862;SDS011;15994;51.796;13.006;2024-02-21T14:24:40;6.80;;;2.50;;
28862;SDS011;15994;51.796;13.006;2024-02-21T14:27:07;7.78;;;3.42;;
28862;SDS011;15994;51.796;13.006;2024-02-21T14:29:34;7.15;;;2.50;;
28862;SDS011;15994;51.796;13.006;2024-02-21T14:32:02;8.85;;;2.80;;